Time;durP1;ratioP1;P1;durP2;ratioP2;P2;SDS_P1;SDS_P2;PMS_P1;PMS_P2;Temp;Humidity;BMP_temperature;BMP_pressure;BME280_temperature;BME280_humidity;BME280_pressure;Samples;Min_cycle;Max_cycle;Signal;HPM_P1;HPM_P2
2023/10/13 00:00:36;;;;;;;5.88;2.80;;;;;;;24.19;43.33;100708.94;5013125;28;20026;-63
2023/10/13 00:03:03;;;;;;;6.00;2.65;;;;;;;24.13;43.67;100709.34;5012391;28;20026;-63
2023/10/13 00:05:30;;;;;;;13.15;3.20;;;;;;;23.61;44.33;100714.78;5013367;28;20106;-63
2023/10/13 00:08:02;;;;;;;7.30;2.90;;;;;;;23.41;44.60;100710.41;5012848;28;20029;-63
2023/10/13 00:10:35;;;;;;;7.18;2.40;;;;;;;23.29;44.77;100707.31;5012990;28;20030;-64
2023/10/13 00:16:09;;;;;;;4.78;2.50;;;;;;;23.06;44.22;100709.00;5007653;28;20427;-64
2023/10/13 00:18:41;;;;;;;6.53;2.75;;;;;;;22.70;44.00;100696.84;5000828;28;20057;-64
2023/10/13 00:21:15;;;;;;;7.57;2.38;;;;;;;22.70;44.68;100700.38;5011243;28;20113;-65
2023/10/13 00:23:54;;;;;;;8.93;3.00;;;;;;;22.67;44.38;100706.44;5010864;28;20032;-64
2023/10/13 00:26:27;;;;;;;5.80;2.58;;;;;;;22.63;44.44;100705.38;5010018;28;20022;-65
2023/10/13 00:29:08;;;;;;;10.82;2.80;;;;;;;22.52;45.29;100703.88;5004571;28;20026;-65
2023/10/13 00:31:38;;;;;;;6.15;2.53;;;;;;;22.65;44.16;100706.72;4997774;28;20034;-65
2023/10/13 00:37:11;;;;;;;6.82;2.53;;;;;;;22.80;44.59;100711.19;5013036;28;20103;-65
2023/10/13 00:39:36;;;;;;;6.47;2.88;;;;;;;22.73;43.85;100718.09;5008156;28;20085;-65
2023/10/13 00:42:17;;;;;;;6.57;2.90;;;;;;;22.64;44.70;100726.91;4992735;28;20034;-65
2023/10/13 00:44:48;;;;;;;9.45;2.80;;;;;;;22.74;43.92;100725.19;4993276;28;20030;-65
2023/10/13 00:50:05;;;;;;;6.28;2.53;;;;;;;22.60;44.99;100719.63;5002899;28;20128;-63
2023/10/13 00:52:35;;;;;;;7.13;2.67;;;;;;;22.40;44.80;100723.34;5000609;28;20040;-62
2023/10/13 00:55:04;;;;;;;6.03;2.97;;;;;;;22.53;45.82;100709.03;5012690;28;20113;-64
2023/10/13 00:57:30;;;;;;;5.97;2.70;;;;;;;22.16;47.26;100714.31;5012379;28;20025;-65
2023/10/13 00:59:57;;;;;;;6.18;2.92;;;;;;;22.17;46.99;100715.94;5012410;28;20414;-62
2023/10/13 01:05:19;;;;;;;7.05;2.95;;;;;;;22.24;46.67;100717.22;5019666;28;20068;-65
2023/10/13 01:08:01;;;;;;;8.10;2.92;;;;;;;21.80;47.81;100717.28;5012404;28;20072;-64
2023/10/13 01:10:27;;;;;;;11.45;3.78;;;;;;;21.75;49.24;100709.16;5012305;28;20021;-66
2023/10/13 01:12:56;;;;;;;15.05;3.45;;;;;;;21.58;50.19;100723.16;5012158;28;20040;-65
2023/10/13 01:15:29;;;;;;;9.80;3.70;;;;;;;21.61;50.53;100730.78;5011278;28;20014;-58
2023/10/13 01:18:11;;;;;;;7.40;3.53;;;;;;;21.27;51.89;100730.66;5010112;28;20037;-56
2023/10/13 01:20:45;;;;;;;11.10;4.65;;;;;;;21.17;51.71;100722.53;4992092;28;20062;-58
2023/10/13 01:23:19;;;;;;;10.50;3.95;;;;;;;20.97;52.92;100726.16;5006438;23;20036;-59
2023/10/13 01:25:45;;;;;;;6.82;2.95;;;;;;;21.09;53.07;100719.28;4973086;28;20112;-59
2023/10/13 01:28:18;;;;;;;10.23;3.25;;;;;;;20.96;53.81;100721.81;4998385;28;20030;-64
2023/10/13 01:30:50;;;;;;;9.57;4.03;;;;;;;20.85;54.15;100725.66;4992268;28;20033;-66
2023/10/13 01:33:29;;;;;;;8.20;3.40;;;;;;;20.68;53.98;100725.97;4992045;28;20026;-63
2023/10/13 01:35:59;;;;;;;10.27;3.80;;;;;;;20.76;54.03;100728.13;4976358;28;20026;-60
2023/10/13 01:38:33;;;;;;;9.90;3.38;;;;;;;20.53;54.92;100740.41;4985614;28;20035;-59
2023/10/13 01:40:59;;;;;;;7.60;3.75;;;;;;;20.62;54.97;100746.13;4983107;28;20094;-59
2023/10/13 01:43:25;;;;;;;10.07;3.53;;;;;;;20.45;55.31;100740.97;4977998;28;20030;-60
2023/10/13 01:45:53;;;;;;;7.65;3.13;;;;;;;20.27;55.55;100745.88;4992531;28;20100;-60
2023/10/13 01:48:21;;;;;;;11.15;3.50;;;;;;;20.22;55.91;100747.78;4983929;28;20038;-60
2023/10/13 01:50:52;;;;;;;9.32;3.28;;;;;;;20.09;55.91;100743.69;4972536;28;20121;-58
2023/10/13 01:53:19;;;;;;;10.20;3.90;;;;;;;20.01;56.81;100747.75;4972397;28;20175;-66
2023/10/13 01:55:45;;;;;;;7.63;2.88;;;;;;;20.09;56.68;100749.13;4972804;28;20030;-62
2023/10/13 01:58:16;;;;;;;7.97;3.00;;;;;;;19.82;57.33;100757.50;4976986;28;20053;-59
2023/10/13 02:00:43;;;;;;;8.48;3.47;;;;;;;19.69;58.24;100755.31;4974546;28;20110;-59
2023/10/13 02:03:17;;;;;;;7.65;2.92;;;;;;;19.91;57.57;100755.91;4991293;28;20069;-59
2023/10/13 02:05:47;;;;;;;5.40;2.90;;;;;;;19.76;57.51;100762.13;4994609;28;20474;-59
2023/10/13 02:08:25;;;;;;;5.57;3.00;;;;;;;19.64;57.81;100761.56;4995921;28;20034;-59
2023/10/13 02:10:52;;;;;;;6.22;2.95;;;;;;;19.67;57.43;100758.31;4976049;28;20034;-59
2023/10/13 02:13:22;;;;;;;6.93;3.22;;;;;;;19.72;56.39;100765.66;4981257;28;20027;-59
2023/10/13 02:15:51;;;;;;;7.38;2.88;;;;;;;19.63;56.47;100757.22;4995900;28;20042;-59
2023/10/13 02:18:21;;;;;;;7.18;3.45;;;;;;;19.70;55.96;100754.22;4995571;28;20035;-59
2023/10/13 02:20:54;;;;;;;7.20;3.30;;;;;;;19.56;56.61;100753.91;4994991;28;20042;-59
2023/10/13 02:23:21;;;;;;;6.03;3.45;;;;;;;19.34;56.42;100764.16;4995436;28;20058;-59
2023/10/13 02:25:48;;;;;;;6.38;2.78;;;;;;;19.21;56.02;100757.31;4995345;28;20034;-59
2023/10/13 02:28:14;;;;;;;7.75;3.10;;;;;;;19.03;56.48;100752.34;4995181;28;20027;-59
2023/10/13 02:30:44;;;;;;;5.57;3.28;;;;;;;18.95;56.90;100756.41;4990652;28;21019;-59
2023/10/13 02:33:14;;;;;;;4.63;2.50;;;;;;;18.96;56.65;100758.84;4979656;28;20035;-59
2023/10/13 02:35:50;;;;;;;6.82;2.75;;;;;;;18.93;56.96;100758.53;4980878;28;20044;-58
2023/10/13 02:38:26;;;;;;;7.15;3.13;;;;;;;18.83;56.26;100753.91;4977083;28;20058;-59
2023/10/13 02:40:54;;;;;;;9.02;2.38;;;;;;;18.71;55.84;100761.38;4980322;28;20153;-59
2023/10/13 02:43:22;;;;;;;6.85;2.50;;;;;;;18.52;55.60;100762.88;4995298;28;20033;-59
2023/10/13 02:45:59;;;;;;;8.02;2.90;;;;;;;18.45;55.49;100763.09;4994814;28;20030;-57
2023/10/13 02:48:30;;;;;;;4.63;1.83;;;;;;;18.48;55.23;100770.69;4991352;28;20488;-58
2023/10/13 02:51:01;;;;;;;5.28;2.42;;;;;;;18.59;54.58;100785.97;4974376;28;20042;-58
2023/10/13 02:53:29;;;;;;;5.03;2.03;;;;;;;18.70;54.04;100790.41;4974677;28;20030;-58
2023/10/13 02:56:05;;;;;;;5.10;2.20;;;;;;;18.59;54.66;100794.09;4994263;28;20030;-58
2023/10/13 02:58:38;;;;;;;5.68;2.10;;;;;;;18.69;54.65;100796.91;4993504;28;20413;-58
2023/10/13 03:01:20;;;;;;;4.53;2.50;;;;;;;18.42;54.93;100788.81;4983699;28;20041;-58
2023/10/13 03:03:54;;;;;;;6.38;3.15;;;;;;;18.36;55.42;100786.34;4994703;28;20023;-58
2023/10/13 03:06:24;;;;;;;6.10;3.50;;;;;;;18.39;54.94;100792.06;4994831;28;20304;-58
2023/10/13 03:08:52;;;;;;;6.32;2.85;;;;;;;18.24;55.49;100782.97;4994735;28;20042;-58
2023/10/13 03:11:22;;;;;;;5.80;2.95;;;;;;;18.36;55.04;100772.78;4994425;28;20364;-60
2023/10/13 03:13:51;;;;;;;5.18;3.05;;;;;;;18.09;55.71;100778.25;4994952;28;20379;-60
2023/10/13 03:16:19;;;;;;;5.57;3.08;;;;;;;17.89;56.46;100781.59;4974526;28;20027;-60
2023/10/13 03:18:55;;;;;;;4.15;2.60;;;;;;;18.07;55.50;100783.94;4994259;28;20030;-58
2023/10/13 03:21:29;;;;;;;4.28;2.22;;;;;;;18.02;55.42;100786.59;4994214;28;20073;-59
2023/10/13 03:24:06;;;;;;;5.95;2.70;;;;;;;17.94;55.87;100787.06;4994726;28;20050;-58
2023/10/13 03:26:37;;;;;;;4.45;2.03;;;;;;;17.87;55.27;100779.13;4994701;28;20436;-58
2023/10/13 03:29:13;;;;;;;7.22;2.38;;;;;;;17.86;55.10;100779.38;4975021;28;20019;-58
2023/10/13 03:31:39;;;;;;;4.32;1.83;;;;;;;17.76;55.11;100774.69;4976525;28;20041;-58
2023/10/13 03:34:09;;;;;;;4.88;2.33;;;;;;;17.50;55.05;100768.16;4976636;28;20030;-57
2023/10/13 03:39:27;;;;;;;5.35;2.50;;;;;;;17.14;55.82;100772.31;4994100;28;20379;-59
2023/10/13 03:41:58;;;;;;;6.70;2.75;;;;;;;16.83;56.73;100769.22;4993639;28;20049;-59
2023/10/13 03:44:30;;;;;;;3.78;2.15;;;;;;;17.01;56.05;100775.41;4994291;28;20032;-58
2023/10/13 03:46:56;;;;;;;5.40;2.15;;;;;;;17.02;55.89;100772.44;4982057;28;20022;-58
2023/10/13 03:49:25;;;;;;;2.92;1.60;;;;;;;17.11;55.53;100773.66;4990208;28;20055;-58
2023/10/13 03:51:54;;;;;;;4.20;2.17;;;;;;;17.22;56.04;100788.13;4991062;28;20022;-58
2023/10/13 03:54:20;;;;;;;2.97;1.73;;;;;;;17.10;56.45;100780.13;4982577;28;20030;-58
2023/10/13 03:56:52;;;;;;;2.55;1.52;;;;;;;17.03;56.46;100781.34;4989837;28;20058;-58
2023/10/13 03:59:18;;;;;;;6.18;2.22;;;;;;;17.09;56.41;100783.88;4990284;28;20101;-58
2023/10/13 04:01:58;;;;;;;4.72;2.10;;;;;;;17.06;56.74;100783.56;4991835;28;20391;-58
2023/10/13 04:17:14;;;;;;;6.13;2.53;;;;;;;16.57;58.09;100772.56;4992565;28;20105;-58
2023/10/13 04:20:12;;;;;;;3.72;2.08;;;;;;;16.57;58.16;100769.88;4990284;28;20537;-58
2023/10/13 04:38:59;;;;;;;6.22;2.63;;;;;;;16.10;58.42;100784.53;4992211;28;20092;-59
2023/10/13 04:41:43;;;;;;;5.22;2.45;;;;;;;16.14;58.71;100792.13;4988249;28;20558;-59
2023/10/13 04:49:49;;;;;;;4.90;2.20;;;;;;;15.84;58.52;100802.16;4992366;28;20038;-59
2023/10/13 04:55:16;;;;;;;;;;;;;;;15.67;59.05;100805.88;4991941;28;20514;-58
2023/10/13 05:02:53;;;;;;;3.15;1.70;;;;;;;15.57;59.81;100815.34;4990784;28;20105;-59
2023/10/13 05:52:06;;;;;;;3.65;1.77;;;;;;;14.97;60.08;100828.34;4985770;28;20231;-58
2023/10/13 06:30:17;;;;;;;3.10;1.20;;;;;;;14.18;59.65;100831.28;4995171;28;20069;-58
2023/10/13 06:32:46;;;;;;;1.98;1.48;;;;;;;14.14;59.45;100835.47;4995072;28;20023;-58
2023/10/13 06:35:24;;;;;;;3.22;1.60;;;;;;;14.12;58.48;100836.78;4982920;28;20427;-58
2023/10/13 06:37:51;;;;;;;2.30;1.40;;;;;;;14.15;58.05;100839.00;4990779;28;20058;-58
2023/10/13 06:43:11;;;;;;;1.75;1.45;;;;;;;14.16;57.96;100829.88;4994841;28;20030;-59
2023/10/13 06:45:38;;;;;;;1.70;1.30;;;;;;;14.08;57.35;100847.16;4995182;28;20148;-59
2023/10/13 06:48:11;;;;;;;2.30;1.20;;;;;;;14.14;57.27;100845.44;4994009;28;20038;-59
2023/10/13 06:50:41;;;;;;;3.42;2.00;;;;;;;14.25;58.13;100850.03;4994528;28;20510;-59
2023/10/13 06:53:11;;;;;;;2.28;1.08;;;;;;;14.22;57.93;100855.88;4992489;28;20587;-59
2023/10/13 06:55:39;;;;;;;1.77;1.23;;;;;;;14.15;57.81;100857.84;4993210;28;20069;-59
2023/10/13 06:58:13;;;;;;;3.42;1.25;;;;;;;14.11;57.71;100864.75;4993396;28;20031;-59
2023/10/13 07:00:40;;;;;;;1.67;1.10;;;;;;;14.18;58.03;100863.59;4992435;28;20035;-59
2023/10/13 07:03:17;;;;;;;1.55;1.13;;;;;;;14.04;57.64;100858.59;4993900;28;20659;-59
2023/10/13 07:05:47;;;;;;;1.77;1.33;;;;;;;14.06;57.57;100864.59;4993066;28;20058;-57
2023/10/13 07:08:19;;;;;;;2.63;1.48;;;;;;;14.05;57.73;100865.63;4994232;28;20030;-58
2023/10/13 07:11:17;;;;;;;1.67;0.98;;;;;;;14.09;57.41;100861.44;4993752;28;20037;-59
2023/10/13 07:13:50;;;;;;;4.65;2.17;;;;;;;14.09;57.16;100864.13;4994431;28;20092;-59
2023/10/13 07:16:17;;;;;;;6.70;3.05;;;;;;;14.16;57.36;100862.19;4993843;28;20062;-59
2023/10/13 07:18:54;;;;;;;5.78;2.97;;;;;;;14.18;57.49;100860.91;4994025;28;20030;-59
2023/10/13 07:21:31;;;;;;;4.70;2.38;;;;;;;14.08;57.81;100859.81;4992392;28;20487;-59
2023/10/13 07:24:11;;;;;;;6.32;2.45;;;;;;;14.15;57.80;100860.53;4993762;28;20061;-59
2023/10/13 07:26:45;;;;;;;4.75;2.47;;;;;;;14.15;58.05;100865.91;4993236;28;20406;-59
2023/10/13 07:29:13;;;;;;;3.72;2.35;;;;;;;14.15;58.08;100852.44;4988301;28;20034;-59
2023/10/13 07:31:41;;;;;;;2.35;1.55;;;;;;;14.12;58.16;100853.75;4981025;28;20038;-59
2023/10/13 07:34:24;;;;;;;2.85;1.30;;;;;;;14.16;57.77;100846.03;4993155;28;20053;-59
2023/10/13 07:36:52;;;;;;;2.10;1.60;;;;;;;14.28;57.94;100854.97;4992882;28;20026;-59
2023/10/13 07:39:23;;;;;;;1.63;1.40;;;;;;;14.15;58.04;100860.53;4992859;28;20090;-59
2023/10/13 07:42:23;;;;;;;2.13;1.10;;;;;;;14.15;58.06;100864.03;4991753;28;20513;-59
2023/10/13 07:44:46;;;;;;;2.28;1.15;;;;;;;14.25;57.97;100866.19;4991987;28;20038;-59
2023/10/13 07:47:14;;;;;;;2.47;1.38;;;;;;;14.22;58.02;100870.16;4993590;28;20482;-59
2023/10/13 07:49:41;;;;;;;2.00;1.00;;;;;;;14.19;57.65;100867.09;4993011;28;20041;-59
2023/10/13 07:54:50;;;;;;;1.63;0.93;;;;;;;14.08;57.61;100859.81;4991865;28;20035;-59
2023/10/13 07:57:17;;;;;;;3.75;1.30;;;;;;;13.87;57.76;100870.00;4993206;28;20035;-59
2023/10/13 07:59:52;;;;;;;3.25;1.40;;;;;;;13.87;57.67;100872.69;4993270;28;20309;-59
2023/10/13 08:05:39;;;;;;;2.17;1.40;;;;;;;13.86;58.39;100860.28;4970992;28;20039;-59
2023/10/13 08:08:14;;;;;;;1.45;1.05;;;;;;;13.90;58.53;100855.28;4991014;28;20053;-59
2023/10/13 08:10:42;;;;;;;;;;;;;;;13.96;58.26;100855.19;4990622;28;20087;-59
2023/10/13 08:13:12;;;;;;;1.55;0.90;;;;;;;13.96;58.34;100859.75;4992302;28;19922;-59
2023/10/13 08:15:48;;;;;;;1.85;1.00;;;;;;;13.90;58.80;100874.13;4991847;28;20085;-59
2023/10/13 08:18:24;;;;;;;1.88;1.10;;;;;;;13.79;58.47;100864.94;4981512;28;20502;-59
2023/10/13 08:20:52;;;;;;;1.60;0.85;;;;;;;13.72;57.75;100864.22;4990415;28;20485;-59
2023/10/13 08:23:34;;;;;;;1.75;1.00;;;;;;;13.68;57.79;100871.09;4991072;28;20113;-59
2023/10/13 08:28:56;;;;;;;4.22;1.13;;;;;;;13.69;58.26;100883.50;4987153;28;20509;-58
2023/10/13 08:31:24;;;;;;;2.13;1.00;;;;;;;13.72;58.26;100880.38;4990924;28;20109;-59
2023/10/13 08:34:05;;;;;;;1.88;0.95;;;;;;;13.66;58.47;100883.94;4991110;28;20031;-59
2023/10/13 08:36:32;;;;;;;1.60;1.00;;;;;;;13.89;58.18;100881.38;4991305;28;20030;-59
2023/10/13 08:39:15;;;;;;;1.67;0.98;;;;;;;13.97;57.99;100875.66;4980258;28;20479;-59
2023/10/13 08:42:11;;;;;;;2.60;1.00;;;;;;;13.81;58.27;100883.53;4986588;28;20062;-59
2023/10/13 08:44:45;;;;;;;1.33;1.05;;;;;;;13.73;58.55;100882.81;4991468;28;20514;-59
2023/10/13 08:47:18;;;;;;;2.83;0.85;;;;;;;13.47;59.63;100873.19;4992076;28;20038;-59
2023/10/13 08:49:50;;;;;;;2.38;1.48;;;;;;;13.43;60.29;100871.16;4991968;28;20153;-59
2023/10/13 08:57:53;;;;;;;2.00;1.35;;;;;;;13.39;61.67;100864.59;4991665;28;20548;-59
2023/10/13 09:00:55;;;;;;;1.67;1.23;;;;;;;13.56;60.93;100872.91;4992025;28;20037;-59
2023/10/13 09:06:02;;;;;;;3.58;1.45;;;;;;;13.55;61.00;100882.00;4976811;28;20450;-57
2023/10/13 09:08:58;;;;;;;;;;;;;;;13.48;61.38;100882.88;4991182;28;20040;-57
2023/10/13 09:11:26;;;;;;;1.20;1.00;;;;;;;13.54;61.23;100883.84;4990470;28;19917;-57
2023/10/13 09:13:53;;;;;;;2.97;1.38;;;;;;;13.41;61.54;100886.69;4989870;28;20085;-57
2023/10/13 09:16:51;;;;;;;1.70;1.23;;;;;;;13.44;61.23;100888.97;4992153;28;20101;-57
2023/10/13 09:19:11;;;;;;;3.70;1.35;;;;;;;13.44;61.21;100889.78;4991621;28;20513;-57
2023/10/13 09:24:27;;;;;;;1.83;0.85;;;;;;;13.47;61.02;100892.00;4990841;28;20026;-57
2023/10/13 09:26:55;;;;;;;3.40;0.95;;;;;;;13.45;61.07;100888.72;4988933;28;20092;-56
2023/10/13 09:29:24;;;;;;;1.38;1.00;;;;;;;13.47;61.05;100886.63;4987531;28;20046;-57
2023/10/13 09:32:02;;;;;;;3.47;1.45;;;;;;;13.38;61.18;100884.44;4989632;28;20038;-57
2023/10/13 09:34:33;;;;;;;1.63;1.05;;;;;;;13.31;60.91;100881.84;4990971;28;20046;-57
2023/10/13 09:37:03;;;;;;;1.65;0.95;;;;;;;13.51;60.66;100889.69;4990726;28;20034;-57
2023/10/13 09:39:29;;;;;;;2.60;1.20;;;;;;;13.59;60.88;100899.31;4990993;28;20034;-59
2023/10/13 09:41:59;;;;;;;1.85;1.35;;;;;;;13.54;61.04;100904.56;4989451;28;20636;-57
2023/10/13 09:44:31;;;;;;;1.90;1.25;;;;;;;13.44;61.27;100903.22;4990164;28;20038;-56
2023/10/13 09:47:17;;;;;;;1.38;0.90;;;;;;;13.42;61.43;100916.06;4991938;28;20092;-59
2023/10/13 09:49:45;;;;;;;2.00;1.30;;;;;;;13.41;61.71;100909.03;4989934;28;20105;-59
2023/10/13 09:52:19;;;;;;;3.08;1.30;;;;;;;13.35;62.27;100911.78;4990349;28;20093;-59
2023/10/13 09:55:20;;;;;;;1.55;1.20;;;;;;;13.30;62.91;100907.06;4990272;28;20042;-57
2023/10/13 09:58:00;;;;;;;2.65;2.03;;;;;;;13.14;65.06;100904.94;4973835;28;20046;-57
2023/10/13 10:06:06;;;;;;;3.53;2.00;;;;;;;13.11;64.24;100902.69;4988707;28;20116;-57
2023/10/13 10:08:34;;;;;;;2.25;1.42;;;;;;;12.92;63.57;100904.50;4979073;28;20034;-57
2023/10/13 10:11:00;;;;;;;2.80;1.20;;;;;;;12.95;63.14;100902.22;4989743;28;20046;-56
2023/10/13 10:14:14;;;;;;;1.83;1.02;;;;;;;12.94;63.08;100900.56;4990227;28;20027;-57
2023/10/13 10:17:03;;;;;;;1.92;1.27;;;;;;;12.80;63.22;100896.34;4968299;28;20027;-58
2023/10/13 10:19:30;;;;;;;2.10;1.00;;;;;;;12.72;63.02;100888.56;4982397;28;20100;-58
2023/10/13 10:22:18;;;;;;;1.23;0.80;;;;;;;12.70;63.52;100896.00;4921131;28;1997701;-58
2023/10/13 10:24:45;;;;;;;2.97;1.20;;;;;;;12.65;64.06;100898.53;4990520;28;20125;-58
2023/10/13 10:27:14;;;;;;;2.05;1.10;;;;;;;12.72;64.19;100904.69;4993706;28;20022;-57
2023/10/13 10:29:56;;;;;;;2.42;1.23;;;;;;;12.79;64.46;100893.88;4994539;28;20030;-57
2023/10/13 10:32:36;;;;;;;3.38;1.50;;;;;;;12.73;65.62;100895.59;4993521;28;20121;-57
2023/10/13 10:35:14;;;;;;;3.65;2.10;;;;;;;12.65;66.50;100891.28;4994281;28;20144;-58
2023/10/13 10:37:46;;;;;;;3.35;1.20;;;;;;;12.81;66.09;100892.59;4985015;28;20122;-57
2023/10/13 10:40:46;;;;;;;2.17;1.20;;;;;;;12.83;66.13;100893.22;4994846;28;20072;-57
2023/10/13 10:43:17;;;;;;;2.33;1.23;;;;;;;12.88;65.71;100887.16;4982337;28;20036;-58
2023/10/13 10:45:51;;;;;;;1.73;1.13;;;;;;;12.83;66.33;100884.34;4994426;28;20034;-58
2023/10/13 10:48:18;;;;;;;2.47;1.30;;;;;;;12.85;66.27;100868.81;4994480;28;20034;-58
2023/10/13 10:50:55;;;;;;;3.63;1.50;;;;;;;12.86;66.13;100873.97;4992940;28;20439;-57
2023/10/13 10:53:43;;;;;;;1.98;1.23;;;;;;;12.91;65.69;100882.19;4993775;28;20125;-57
2023/10/13 10:56:20;;;;;;;2.58;1.20;;;;;;;12.86;65.50;100881.22;4994701;28;20034;-57
2023/10/13 10:58:54;;;;;;;3.30;1.40;;;;;;;12.78;65.43;100887.69;4993262;28;20509;-58
2023/10/13 11:01:22;;;;;;;2.33;1.70;;;;;;;13.05;66.66;100899.03;4993593;28;20038;-58
2023/10/13 11:03:57;;;;;;;2.10;1.52;;;;;;;12.80;67.60;100890.97;4994183;28;20364;-58
2023/10/13 11:06:25;;;;;;;4.05;2.00;;;;;;;12.64;68.62;100884.28;4993942;28;20030;-57
2023/10/13 11:09:31;;;;;;;6.07;2.45;;;;;;;12.59;69.03;100889.47;4994569;28;20037;-57
2023/10/13 11:12:13;;;;;;;3.97;2.37;;;;;;;12.57;68.72;100886.19;4990788;28;20018;-57
2023/10/13 11:14:40;;;;;;;3.60;1.75;;;;;;;12.43;68.67;100884.63;4993330;28;20042;-57
2023/10/13 11:17:21;;;;;;;2.97;1.80;;;;;;;12.42;67.95;100878.44;4994821;28;20041;-57
2023/10/13 11:19:48;;;;;;;2.45;1.85;;;;;;;12.09;68.14;100875.13;4993290;28;20022;-58
2023/10/13 11:22:36;;;;;;;2.08;1.30;;;;;;;12.16;67.74;100878.63;4994401;28;20422;-57
2023/10/13 11:25:10;;;;;;;2.22;1.08;;;;;;;12.08;67.46;100871.63;4986300;28;20085;-57
2023/10/13 11:30:25;;;;;;;1.15;0.80;;;;;;;11.91;66.95;100867.81;4992888;28;20509;-57
2023/10/13 11:33:08;;;;;;;4.20;1.17;;;;;;;12.02;65.92;100869.00;4993356;28;20113;-57
2023/10/13 11:41:11;;;;;;;3.83;1.10;;;;;;;11.94;64.79;100867.41;4992683;28;20030;-57
2023/10/13 11:48:42;;;;;;;2.00;1.10;;;;;;;11.98;63.82;100870.47;4992463;28;20026;-57
2023/10/13 11:51:32;;;;;;;2.47;1.02;;;;;;;11.96;64.01;100870.69;4992904;28;20088;-57
2023/10/13 11:54:01;;;;;;;1.98;0.90;;;;;;;11.89;63.32;100865.34;4992920;28;20091;-58
2023/10/13 11:56:27;;;;;;;1.98;1.05;;;;;;;11.89;63.19;100876.09;4992388;28;20034;-59
2023/10/13 11:58:53;;;;;;;1.58;0.80;;;;;;;11.93;62.95;100872.97;4992400;28;20034;-59
2023/10/13 12:01:20;;;;;;;1.35;0.73;;;;;;;11.94;62.89;100870.09;4992672;28;20092;-58
2023/10/13 12:06:47;;;;;;;1.30;0.93;;;;;;;11.90;62.97;100868.84;4992222;28;20037;-58
2023/10/13 12:09:41;;;;;;;2.42;1.20;;;;;;;11.85;63.51;100879.41;4978029;28;20031;-58
2023/10/13 12:12:07;;;;;;;1.67;1.00;;;;;;;11.88;63.49;100885.16;4992050;28;20049;-58
2023/10/13 12:14:37;;;;;;;1.02;0.90;;;;;;;11.85;63.79;100880.22;4992429;28;20044;-58
2023/10/13 12:17:04;;;;;;;1.40;1.10;;;;;;;11.75;64.09;100892.41;4992079;28;20469;-57
2023/10/13 12:19:30;;;;;;;2.58;1.02;;;;;;;11.65;64.29;100884.81;4991970;28;20027;-58
2023/10/13 12:22:04;;;;;;;3.50;1.00;;;;;;;11.81;63.70;100879.00;4991438;28;20050;-57
2023/10/13 12:27:19;;;;;;;1.48;0.98;;;;;;;11.91;62.48;100883.09;4992528;28;20018;-57
2023/10/13 12:29:48;;;;;;;2.05;0.80;;;;;;;11.69;63.07;100885.22;4992817;28;20045;-57
2023/10/13 12:32:20;;;;;;;1.90;0.90;;;;;;;11.80;62.69;100896.09;4991556;28;20037;-58
2023/10/13 12:54:13;;;;;;;2.13;1.13;;;;;;;11.44;64.29;100911.88;4982999;28;20398;-51
2023/10/13 12:56:43;;;;;;;1.65;0.90;;;;;;;11.46;64.27;100904.47;4985212;28;20489;-53
2023/10/13 12:59:13;;;;;;;2.97;1.35;;;;;;;11.35;64.29;100898.72;4993060;28;20030;-53
2023/10/13 13:01:43;;;;;;;2.40;1.00;;;;;;;11.37;64.16;100901.16;4992024;28;20023;-52
2023/10/13 13:04:31;;;;;;;1.27;0.88;;;;;;;11.45;64.05;100894.78;4986727;28;20038;-53
2023/10/13 13:06:58;;;;;;;1.48;1.27;;;;;;;11.37;64.24;100896.63;4976337;28;20033;-56
2023/10/13 13:09:27;;;;;;;1.35;1.10;;;;;;;11.31;64.20;100897.47;4992192;28;20112;-56
2023/10/13 13:11:57;;;;;;;2.15;0.82;;;;;;;11.29;64.11;100885.34;4992780;28;20034;-56
2023/10/13 13:14:30;;;;;;;1.20;0.90;;;;;;;11.17;64.47;100898.53;4992690;28;20026;-56
2023/10/13 13:17:04;;;;;;;2.13;1.00;;;;;;;11.23;63.92;100895.03;4992788;28;20113;-56
2023/10/13 13:19:39;;;;;;;1.40;0.70;;;;;;;11.02;64.40;100898.75;4992731;28;20034;-53
2023/10/13 13:22:13;;;;;;;3.58;0.93;;;;;;;10.67;65.77;100890.13;4992088;28;20038;-52
2023/10/13 13:24:46;;;;;;;2.50;1.00;;;;;;;10.92;64.97;100884.97;4992530;28;20030;-58
2023/10/13 13:27:22;;;;;;;2.42;1.33;;;;;;;10.83;65.47;100881.69;4991504;28;20033;-65
2023/10/13 13:29:48;;;;;;;1.55;1.10;;;;;;;10.93;64.56;100889.28;4992576;28;20088;-64
2023/10/13 13:32:23;;;;;;;1.58;1.10;;;;;;;11.16;64.44;100888.88;4992301;28;20421;-63
2023/10/13 13:35:07;;;;;;;1.10;0.80;;;;;;;11.11;64.49;100891.34;4991420;28;20478;-64
2023/10/13 13:37:34;;;;;;;1.10;0.80;;;;;;;11.12;64.32;100895.66;4991954;28;20038;-66
2023/10/13 13:40:17;;;;;;;1.13;0.85;;;;;;;11.11;64.60;100902.06;4992269;28;20030;-64
2023/10/13 13:42:44;;;;;;;2.58;1.15;;;;;;;11.11;64.37;100904.75;4991374;28;20554;-64
2023/10/13 13:45:32;;;;;;;1.52;1.10;;;;;;;11.13;64.66;100908.03;4989219;28;20023;-64
2023/10/13 13:47:58;;;;;;;1.25;1.00;;;;;;;11.12;64.23;100914.41;4990933;28;20511;-65
2023/10/13 13:50:31;;;;;;;2.35;1.05;;;;;;;11.06;64.27;100909.91;4989146;28;20153;-64
2023/10/13 13:52:59;;;;;;;1.85;1.17;;;;;;;11.13;63.86;100924.09;4984683;28;20040;-62
2023/10/13 13:55:31;;;;;;;2.58;1.33;;;;;;;11.22;63.99;100936.25;4992059;28;20030;-64
2023/10/13 13:57:58;;;;;;;1.55;0.95;;;;;;;11.15;64.29;100939.94;4990433;28;20037;-64
2023/10/13 14:00:48;;;;;;;1.20;0.98;;;;;;;11.12;64.41;100935.84;4991370;28;20058;-63
2023/10/13 14:03:32;;;;;;;2.60;1.40;;;;;;;11.18;64.13;100947.59;4987669;28;20420;-65
2023/10/13 14:05:59;;;;;;;2.63;1.10;;;;;;;11.12;64.38;100946.56;4991934;28;20038;-63
2023/10/13 14:08:27;;;;;;;2.08;1.27;;;;;;;11.02;64.50;100954.19;4995363;28;20030;-64
2023/10/13 14:13:48;;;;;;;2.72;1.30;;;;;;;10.94;65.60;100957.91;4995714;28;20030;-65
2023/10/13 14:16:20;;;;;;;2.63;1.15;;;;;;;10.91;65.71;100955.63;4993304;28;20109;-65
2023/10/13 14:18:48;;;;;;;1.65;1.10;;;;;;;10.97;65.77;100964.69;4994800;28;20056;-65
2023/10/13 14:21:17;;;;;;;1.95;1.30;;;;;;;10.90;65.96;100958.50;4994881;28;20074;-65
2023/10/13 14:23:47;;;;;;;1.65;1.35;;;;;;;10.90;65.94;100959.34;4994134;28;20026;-65
2023/10/13 14:26:19;;;;;;;1.50;1.00;;;;;;;10.90;66.02;100953.16;4994886;28;20077;-59
2023/10/13 14:29:00;;;;;;;2.50;1.48;;;;;;;10.89;66.00;100959.56;4995066;28;20054;-60
2023/10/13 14:31:30;;;;;;;2.65;1.50;;;;;;;10.88;66.29;100956.03;4993465;28;20026;-60
2023/10/13 14:33:57;;;;;;;2.08;1.45;;;;;;;10.96;66.81;100953.16;4995686;28;20034;-61
2023/10/13 14:36:28;;;;;;;3.17;1.52;;;;;;;11.00;66.77;100958.94;4994757;28;20026;-62
2023/10/13 14:38:55;;;;;;;2.88;1.55;;;;;;;10.76;68.60;100958.47;4994512;28;20073;-61
2023/10/13 14:41:22;;;;;;;2.88;1.45;;;;;;;10.73;69.21;100956.22;4992698;28;20426;-66
2023/10/13 14:43:48;;;;;;;3.67;1.52;;;;;;;10.78;69.69;100958.31;4995273;28;20026;-60
2023/10/13 14:46:25;;;;;;;3.60;1.55;;;;;;;10.81;70.11;100950.66;4994938;28;20058;-63
2023/10/13 14:48:54;;;;;;;5.28;2.15;;;;;;;10.87;70.35;100951.69;4989974;28;20022;-61
2023/10/13 14:51:21;;;;;;;4.50;1.95;;;;;;;10.81;71.29;100947.16;4980088;28;20594;-62
2023/10/13 14:53:48;;;;;;;2.35;1.40;;;;;;;11.00;70.38;100954.41;4980824;28;20031;-61
2023/10/13 14:56:16;;;;;;;3.00;1.75;;;;;;;11.16;70.06;100953.16;4983578;28;20064;-61
2023/10/13 14:58:43;;;;;;;3.30;1.60;;;;;;;11.12;70.31;100951.91;4975257;28;20047;-62
2023/10/13 15:01:16;;;;;;;3.08;1.50;;;;;;;11.16;70.40;100946.97;4984508;28;20046;-62
2023/10/13 15:03:48;;;;;;;3.67;1.98;;;;;;;11.26;70.90;100953.53;4994914;28;20030;-62
2023/10/13 15:06:19;;;;;;;2.72;1.73;;;;;;;11.40;70.68;100964.25;4994086;28;20489;-62
2023/10/13 15:08:46;;;;;;;3.63;1.55;;;;;;;11.39;70.90;100971.50;4990409;28;20023;-63
2023/10/13 15:11:13;;;;;;;2.22;1.73;;;;;;;11.40;71.09;100969.63;4990300;28;20081;-62
2023/10/13 15:13:42;;;;;;;3.75;1.95;;;;;;;11.53;72.16;100981.13;4995038;28;20050;-62
2023/10/13 15:16:20;;;;;;;5.85;2.00;;;;;;;11.69;71.87;100989.78;4993542;28;20057;-63
2023/10/13 15:18:47;;;;;;;5.50;3.10;;;;;;;11.89;71.03;100990.59;5001811;23;20062;-62
2023/10/13 15:21:28;;;;;;;3.58;3.00;;;;;;;11.85;71.30;100994.72;4986796;28;20038;-62